• Join FlightAware (Why Join?)
  • Login
  • US Flag 
03:08AM EST


 

Airport Tracker/Info


-or-


 

Live Flight TrackerFlight Track Log ✈ JIA2342 ✈ 31-Jul-2013 ✈ KDCA - KALB

Flight Track Log - Related Links

Times and Time Zones

All times are in EDT time to prevent confusion due to time zone crossing. See the JIA2342 flight status page for this flight to view local times or setup timezone preferences in your user account.

Time Position Orientation Groundspeed Altitude Reporting Facility
EDT Latitude Longitude Course Direction KTS MPH feet Rate Location/Type
07:43PM 38.8333 -77.0333 90° East 174 200 1,000  Level Potomac TRACON
07:45PM 38.9782 -76.6602 57° Northeast  Level FlightAware Approximate
07:45PM 38.9089 -76.8561 61° Northeast 241 277 6,100  Level Washington Center
07:46PM 39.0271 -76.5355 67° East  Level FlightAware Approximate
07:46PM 38.9472 -76.7661 61° Northeast 267 307 8,600  Level Washington Center
07:47PM 39.0764 -76.4106 61° Northeast  Level FlightAware Approximate
07:47PM 38.9856 -76.6706 63° Northeast 282 325 11,100  Level Washington Center
07:48PM 39.1167 -76.2837 90° East  Level FlightAware Approximate
07:48PM 39.0322 -76.5803 56° Northeast 289 333 13,100  Level Washington Center
07:49PM 39.0994 -76.5197 35° Northeast 281 323 14,600 1,438 Climbing Washington Center
07:50PM 39.1192 -76.4022 78° East 297 342 16,000 1,538 Climbing Washington Center
07:51PM 39.1406 -76.2794 77° East 319 367 17,600 1,412 Climbing Washington Center
07:52PM 39.1600 -76.1592 78° East 339 390 18,800 1,180 Climbing Washington Center
07:53PM 39.1753 -76.0306 81° East 344 396 20,000 1,091 Climbing Washington Center
07:54PM 39.1922 -75.9022 80° East 355 409 21,000 1,017 Climbing Washington Center
07:55PM 39.2550 -75.8006 51° Northeast 346 398 22,000 1,017 Climbing Washington Center
07:56PM 39.3300 -75.7042 45° Northeast 356 410 23,000 992 Climbing Washington Center
07:57PM 39.4072 -75.6078 44° Northeast 368 423 24,000 992 Climbing Washington Center
07:58PM 39.4822 -75.5081 46° Northeast 374 430 25,000 893 Climbing Washington Center
07:59PM 39.5592 -75.4086 45° Northeast 381 438 25,800 735 Climbing Washington Center
08:01PM 39.6825 -75.2461 45° Northeast 390 449 26,900 650 Climbing New York Center
08:02PM 39.7642 -75.1242 49° Northeast 390 449 27,500 550 Climbing New York Center
08:03PM 39.8414 -75.0128 48° Northeast 395 455 28,000 508 Climbing New York Center
08:04PM 39.9158 -74.9092 47° Northeast 401 461 28,500 492 Climbing New York Center
08:05PM 39.9947 -74.7972 47° Northeast 406 467 29,000 252 Climbing New York Center
08:06PM 40.0736 -74.6853 47° Northeast 406 467 29,000  Level New York Center
08:07PM 40.1644 -74.5844 40° Northeast 418 481 29,000  Level New York Center
08:08PM 40.2533 -74.4778 42° Northeast 418 481 29,000  Level New York Center
08:09PM 40.3439 -74.3764 40° Northeast 424 488 29,000 -50 Level New York Center
08:10PM 40.4347 -74.2747 40° Northeast 424 488 28,900 -639 Descending New York Center
08:11PM 40.5253 -74.1675 42° Northeast 424 488 27,700 -1,255 Descending New York Center
08:13PM 40.7272 -73.9408 40° Northeast 432 497 24,800 -1,144 Descending Boston Center
08:14PM 40.8056 -73.8550 40° Northeast 420 483 24,000 -407 Descending Boston Center
08:15PM 40.8839 -73.7578 43° Northeast 395 455 24,000 -496 Level Boston Center
08:16PM 40.9581 -73.6547 46° Northeast 389 448 23,000 -496 Descending Boston Center
08:17PM 41.0381 -73.5656 40° Northeast 379 436 23,000  Level Boston Center
08:18PM 41.1094 -73.5117 30° Northeast 369 425 23,000 -252 Level Boston Center
08:19PM 41.2267 -73.4558 20° North 369 425 22,500 -1,091 Descending Boston Center
08:20PM 41.3392 -73.4686 355° North 369 425 20,800 -1,721 Descending Boston Center
08:21PM 41.4536 -73.4786 356° North 377 434 19,000 -1,686 Descending Boston Center
08:22PM 41.5575 -73.4997 351° North 377 434 17,400 -1,537 Descending Boston Center
08:23PM 41.6594 -73.5239 350° North 377 434 15,900 -1,627 Descending Boston Center
08:24PM 41.7614 -73.5506 349° North 370 426 14,200 -1,641 Descending Boston Center
08:25PM 41.8611 -73.5744 350° North 370 426 12,700 -1,091 Descending Boston Center
08:26PM 41.9528 -73.5986 349° North 353 406 12,000 -566 Descending Boston Center
08:27PM 42.0211 -73.6194 347° North 338 389 11,700 -600 Descending Boston Center
08:28PM 42.1064 -73.6433 348° North 345 397 11,000 -365 Descending Boston Center
08:29PM 42.2019 -73.6647 351° North 342 394 11,000 -645 Level Boston Center
08:30PM 42.2853 -73.6861 349° North 298 343 9,700 -1,623 Descending Boston Center
08:31PM 42.3706 -73.7047 351° North 288 331 7,700 -1,835 Descending Boston Center
08:32PM 42.4453 -73.7286 347° North 280 322 6,000 -1,686 Descending Boston Center
08:33PM 42.5158 -73.7556 344° North 263 303 4,300 -1,610 Descending Boston Center
08:34PM 42.5864 -73.7825 344° North 257 296 2,700 -1,131 Descending Boston Center
08:35PM 42.6486 -73.8006 348° North 225 259 2,000 -744 Descending Boston Center
08:36PM 42.6964 -73.8044 357° North 157 181 1,200 -787 Descending Boston Center